Bear Creek Observed Data For Previous 48 Hours

Caption
Day and Hour Reservoir Elevation (behind dam)* Tailwater Elevation (below dam)* Average Hourly Discharge*
12/9/2017 1 AM CST 572.28 540.97 416
12/9/2017 2 AM CST 572.24 540.98 418
12/9/2017 3 AM CST 572.20 540.97 416
12/9/2017 4 AM CST 572.16 540.97 416
12/9/2017 5 AM CST 572.12 540.97 416
12/9/2017 6 AM CST 572.08 540.96 414
12/9/2017 7 AM CST 572.03 540.97 416
12/9/2017 8 AM CST 571.99 540.96 414
12/9/2017 9 AM CST 571.95 540.96 414
12/9/2017 10 AM CST 571.90 540.95 412
12/9/2017 11 AM CST 571.85 540.96 414
12/9/2017 12 PM CST 571.81 540.96 414
12/9/2017 1 PM CST 571.76 540.94 409
12/9/2017 2 PM CST 571.71 540.95 412
12/9/2017 3 PM CST 571.67 540.95 412
12/9/2017 4 PM CST 571.62 540.95 412
12/9/2017 5 PM CST 571.59 540.93 407
12/9/2017 6 PM CST 571.54 540.94 409
12/9/2017 7 PM CST 571.50 540.93 407
12/9/2017 8 PM CST 571.45 540.93 407
12/9/2017 9 PM CST 571.41 540.93 407
12/9/2017 10 PM CST 571.36 540.92 405
12/9/2017 11 PM CST 571.32 540.93 407
12/10/2017 12 AM CST 571.27 540.93 407
12/10/2017 1 AM CST 571.23 540.92 405
12/10/2017 2 AM CST 571.18 540.92 405
12/10/2017 3 AM CST 571.14 540.92 405
12/10/2017 4 AM CST 571.09 540.91 403
12/10/2017 5 AM CST 571.05 540.91 403
12/10/2017 6 AM CST 571.00 540.91 403
12/10/2017 7 AM CST 570.95 540.90 400
12/10/2017 8 AM CST 570.91 540.71 364
12/10/2017 9 AM CST 570.87 540.66 355
12/10/2017 10 AM CST 570.82 540.64 351
12/10/2017 11 AM CST 570.79 540.64 351
12/10/2017 12 PM CST 570.75 540.63 349
12/10/2017 1 PM CST 570.71 540.63 349
12/10/2017 2 PM CST 570.67 540.63 349
12/10/2017 3 PM CST 570.63 540.63 349
12/10/2017 4 PM CST 570.59 540.62 347
12/10/2017 5 PM CST 570.55 540.62 347
12/10/2017 6 PM CST 570.51 540.61 346
12/10/2017 7 PM CST 570.47 540.62 347
12/10/2017 8 PM CST 570.43 540.62 347
12/10/2017 9 PM CST 570.40 540.61 346
12/10/2017 10 PM CST 570.36 540.61 346

Elevations are in feet above sea level. Discharges are in cubic feet per second and are reported at the end of the hour.